Time;durP1;ratioP1;P1;durP2;ratioP2;P2;SDS_P1;SDS_P2;PMS_P1;PMS_P2;Temp;Humidity;BMP_temperature;BMP_pressure;BME280_temperature;BME280_humidity;BME280_pressure;Samples;Min_cycle;Max_cycle;Signal;HPM_P1;HPM_P2
2024/03/02 00:00:27;;;;;;;2.17;0.30;;;8.30;99.90;;;;;;4973581;28;20483;-77
2024/03/02 00:02:53;;;;;;;2.05;0.30;;;8.30;99.90;;;;;;4982802;28;20053;-77
2024/03/02 00:05:21;;;;;;;2.33;0.30;;;8.30;99.90;;;;;;4982312;28;20018;-76
2024/03/02 00:07:55;;;;;;;4.57;0.50;;;8.30;99.90;;;;;;4987574;28;20037;-77
2024/03/02 00:10:31;;;;;;;2.50;0.40;;;8.30;99.90;;;;;;4986335;28;20064;-76
2024/03/02 00:12:57;;;;;;;2.95;0.47;;;8.20;99.90;;;;;;4967492;28;20503;-76
2024/03/02 00:15:48;;;;;;;3.25;0.40;;;8.20;99.90;;;;;;4965357;28;20152;-77
2024/03/02 00:18:26;;;;;;;3.97;0.50;;;8.20;99.90;;;;;;4968002;28;20037;-76
2024/03/02 00:20:58;;;;;;;1.13;0.30;;;8.20;99.90;;;;;;4971085;28;20429;-76
2024/03/02 00:23:26;;;;;;;5.63;0.30;;;8.20;99.90;;;;;;4982543;28;20041;-76
2024/03/02 00:25:54;;;;;;;2.55;0.47;;;8.30;99.90;;;;;;4965395;28;20053;-76
2024/03/02 00:28:24;;;;;;;2.08;0.30;;;8.30;99.90;;;;;;4970125;28;20117;-75
2024/03/02 00:31:04;;;;;;;2.38;0.40;;;8.30;99.90;;;;;;4965141;28;20136;-76
2024/03/02 00:33:34;;;;;;;1.52;0.30;;;8.40;99.90;;;;;;4971775;28;20038;-76
2024/03/02 00:36:01;;;;;;;0.90;0.25;;;8.50;99.90;;;;;;4965696;28;20039;-75
2024/03/02 00:38:28;;;;;;;1.05;0.32;;;8.50;99.90;;;;;;4968391;28;20401;-75
2024/03/02 00:40:54;;;;;;;4.05;0.40;;;8.50;99.90;;;;;;4966236;28;20050;-76
2024/03/02 00:43:37;;;;;;;2.15;0.30;;;8.50;99.90;;;;;;4973673;28;20045;-76
2024/03/02 00:46:03;;;;;;;1.55;0.22;;;8.60;99.90;;;;;;4965475;28;20057;-77
2024/03/02 00:48:31;;;;;;;2.13;0.30;;;8.60;99.90;;;;;;4968253;28;20486;-77
2024/03/02 00:50:57;;;;;;;1.50;0.40;;;8.70;99.90;;;;;;4966905;28;20789;-77
2024/03/02 00:53:26;;;;;;;3.88;0.40;;;8.70;99.90;;;;;;4975851;28;20034;-77
2024/03/02 00:55:52;;;;;;;1.73;0.22;;;8.70;99.90;;;;;;4992791;28;20034;-77
2024/03/02 00:58:18;;;;;;;0.85;0.08;;;8.70;99.90;;;;;;4982929;28;20035;-77
2024/03/02 01:00:44;;;;;;;0.32;0.10;;;8.70;99.90;;;;;;4991041;28;20386;-77
2024/03/02 01:03:10;;;;;;;0.25;0.08;;;8.60;99.90;;;;;;4996718;28;20556;-77
2024/03/02 01:05:36;;;;;;;0.10;0.00;;;8.60;99.90;;;;;;4999709;28;20030;-77
2024/03/02 01:08:02;;;;;;;0.88;0.00;;;8.50;99.90;;;;;;4992757;28;20117;-77
2024/03/02 01:10:28;;;;;;;0.30;0.00;;;8.50;99.90;;;;;;5001604;28;20018;-77
2024/03/02 01:12:53;;;;;;;0.22;0.10;;;8.40;99.90;;;;;;4990105;28;20149;-77
2024/03/02 01:15:19;;;;;;;0.10;0.00;;;8.40;99.90;;;;;;4993695;28;20038;-77
2024/03/02 01:17:45;;;;;;;0.13;0.00;;;8.40;99.90;;;;;;4992698;28;20026;-77
2024/03/02 01:20:11;;;;;;;1.00;0.00;;;8.40;99.90;;;;;;4992143;28;20594;-77
2024/03/02 01:22:37;;;;;;;0.20;0.00;;;8.40;99.90;;;;;;4992909;28;20109;-77
2024/03/02 01:25:03;;;;;;;0.40;0.08;;;8.40;99.90;;;;;;4996803;28;20071;-78
2024/03/02 01:27:29;;;;;;;1.17;0.10;;;8.40;99.90;;;;;;4999489;28;20153;-77
2024/03/02 01:29:54;;;;;;;0.20;0.10;;;8.30;99.90;;;;;;5001548;28;20587;-77
2024/03/02 01:32:20;;;;;;;1.10;0.00;;;8.30;99.90;;;;;;4991727;28;20561;-78
2024/03/02 01:34:46;;;;;;;0.65;0.10;;;8.30;99.90;;;;;;4996587;28;20529;-79
2024/03/02 01:37:11;;;;;;;0.32;0.10;;;8.30;99.90;;;;;;5005871;28;20026;-77
2024/03/02 01:39:37;;;;;;;0.40;0.10;;;8.20;99.90;;;;;;4989002;28;20065;-77
2024/03/02 01:42:03;;;;;;;0.32;0.10;;;8.20;99.90;;;;;;4989162;28;20037;-77
2024/03/02 01:44:28;;;;;;;0.10;0.00;;;8.10;99.90;;;;;;5002851;28;20398;-77
2024/03/02 01:46:54;;;;;;;0.38;0.00;;;8.10;99.90;;;;;;4997352;28;20077;-77
2024/03/02 01:49:19;;;;;;;0.20;0.00;;;8.00;99.90;;;;;;4987094;28;20499;-77
2024/03/02 01:51:45;;;;;;;0.30;0.10;;;8.00;99.90;;;;;;4993451;28;20026;-77
2024/03/02 01:54:11;;;;;;;0.30;0.08;;;8.00;99.90;;;;;;4990999;28;20035;-77
2024/03/02 01:56:37;;;;;;;0.52;0.10;;;8.00;99.90;;;;;;4990224;28;20049;-76
2024/03/02 01:59:03;;;;;;;0.13;0.00;;;7.90;99.90;;;;;;4990955;28;20034;-77
2024/03/02 02:01:28;;;;;;;0.20;0.00;;;7.90;99.90;;;;;;4994413;28;20036;-76
2024/03/02 02:03:54;;;;;;;0.20;0.00;;;7.90;99.90;;;;;;4994892;28;20030;-77
2024/03/02 02:06:20;;;;;;;0.52;0.00;;;7.90;99.90;;;;;;4990588;28;20032;-77
2024/03/02 02:08:47;;;;;;;0.25;0.00;;;7.90;99.90;;;;;;4998314;28;20028;-77
2024/03/02 02:11:15;;;;;;;0.32;0.00;;;7.90;99.90;;;;;;4991801;28;20034;-76
2024/03/02 02:13:40;;;;;;;0.60;0.10;;;7.90;99.90;;;;;;4993611;28;20542;-77
2024/03/02 02:16:09;;;;;;;0.10;0.00;;;7.90;99.90;;;;;;4990128;28;20030;-77
2024/03/02 02:18:35;;;;;;;0.25;0.08;;;7.90;99.90;;;;;;4986795;28;20110;-76
2024/03/02 02:21:02;;;;;;;0.30;0.10;;;7.80;99.90;;;;;;4989403;28;20064;-77
2024/03/02 02:23:27;;;;;;;0.10;0.00;;;7.80;99.90;;;;;;4998997;28;20097;-77
2024/03/02 02:25:53;;;;;;;0.38;0.10;;;7.80;99.90;;;;;;4991886;28;20498;-76
2024/03/02 02:28:18;;;;;;;1.27;0.10;;;7.80;99.90;;;;;;4992110;28;20030;-77
2024/03/02 02:30:44;;;;;;;0.63;0.10;;;7.80;99.90;;;;;;5008417;28;20026;-77
2024/03/02 02:33:10;;;;;;;0.38;0.00;;;7.80;99.90;;;;;;4986478;28;20069;-77
2024/03/02 02:35:35;;;;;;;0.80;0.10;;;7.80;99.90;;;;;;4995044;28;20072;-77
2024/03/02 02:38:02;;;;;;;0.40;0.10;;;7.80;99.90;;;;;;4991962;28;20033;-78
2024/03/02 02:40:30;;;;;;;0.45;0.00;;;7.80;99.90;;;;;;4997108;28;20028;-76
2024/03/02 02:42:56;;;;;;;2.08;0.10;;;7.80;99.90;;;;;;4988729;28;20022;-76
2024/03/02 02:45:22;;;;;;;0.57;0.10;;;7.80;99.90;;;;;;4992809;28;20027;-76
2024/03/02 02:47:47;;;;;;;0.10;0.00;;;7.80;99.90;;;;;;4984305;28;20542;-75
2024/03/02 02:50:13;;;;;;;0.20;0.00;;;7.70;99.90;;;;;;4991068;28;20110;-76
2024/03/02 02:52:41;;;;;;;0.10;0.00;;;7.70;99.90;;;;;;4997158;28;20105;-76
2024/03/02 02:55:11;;;;;;;0.32;0.10;;;7.70;99.90;;;;;;4986677;28;20038;-76
2024/03/02 02:57:39;;;;;;;0.35;0.10;;;7.70;99.90;;;;;;5003173;28;20105;-75
2024/03/02 03:00:15;;;;;;;1.65;0.10;;;7.60;99.90;;;;;;4998353;28;20076;-76
2024/03/02 03:02:42;;;;;;;0.20;0.10;;;7.60;99.90;;;;;;4992874;28;20042;-76
2024/03/02 03:05:09;;;;;;;0.30;0.00;;;7.60;99.90;;;;;;4995744;28;20048;-76
2024/03/02 03:07:34;;;;;;;0.38;0.10;;;7.60;99.90;;;;;;4993526;28;20225;-76
2024/03/02 03:10:01;;;;;;;0.75;0.10;;;7.60;99.90;;;;;;4995798;28;20030;-77
2024/03/02 03:12:27;;;;;;;0.30;0.10;;;7.60;99.90;;;;;;4969703;28;20038;-76
2024/03/02 03:14:52;;;;;;;1.88;0.40;;;7.50;99.90;;;;;;4966954;28;20070;-76
2024/03/02 03:17:18;;;;;;;0.13;0.00;;;7.50;99.90;;;;;;4969487;28;20072;-76
2024/03/02 03:19:43;;;;;;;0.95;0.08;;;7.50;99.90;;;;;;4973062;28;20895;-76
2024/03/02 03:22:09;;;;;;;1.02;0.10;;;7.50;99.90;;;;;;4968721;28;20076;-76
2024/03/02 03:24:35;;;;;;;0.00;0.00;;;7.50;99.90;;;;;;4967260;28;20046;-76
2024/03/02 03:27:00;;;;;;;0.10;0.03;;;7.50;99.90;;;;;;4966020;28;20066;-75
2024/03/02 03:29:26;;;;;;;0.63;0.10;;;7.50;99.90;;;;;;4971655;28;20506;-76
2024/03/02 03:31:52;;;;;;;2.08;0.10;;;7.50;99.90;;;;;;4974176;28;20031;-76
2024/03/02 03:34:17;;;;;;;0.30;0.03;;;7.50;99.90;;;;;;4966939;28;20415;-77
2024/03/02 03:36:43;;;;;;;0.80;0.10;;;7.50;99.90;;;;;;4969088;28;20023;-76
2024/03/02 03:39:08;;;;;;;0.50;0.10;;;7.50;99.90;;;;;;4981511;28;20117;-76
2024/03/02 03:41:34;;;;;;;0.68;0.38;;;7.50;99.90;;;;;;5006250;28;20580;-77
2024/03/02 03:44:00;;;;;;;1.23;0.20;;;7.50;99.90;;;;;;4987085;28;20515;-76
2024/03/02 03:46:25;;;;;;;0.20;0.00;;;7.50;99.90;;;;;;4997736;28;20022;-77
2024/03/02 03:48:51;;;;;;;0.52;0.00;;;7.50;99.90;;;;;;4981935;28;20137;-76
2024/03/02 03:51:16;;;;;;;0.43;0.10;;;7.50;99.90;;;;;;4967368;28;20026;-75
2024/03/02 03:53:42;;;;;;;1.38;0.10;;;7.50;99.90;;;;;;4965349;28;20133;-77
2024/03/02 03:56:07;;;;;;;0.30;0.10;;;7.50;99.90;;;;;;4966727;28;20057;-76
2024/03/02 03:58:33;;;;;;;0.80;0.20;;;7.50;99.90;;;;;;4974537;28;20066;-77
2024/03/02 04:00:58;;;;;;;1.10;0.10;;;7.50;99.90;;;;;;4981943;28;20049;-76
2024/03/02 04:03:25;;;;;;;0.40;0.10;;;7.50;99.90;;;;;;4968181;28;20049;-76
2024/03/02 04:05:51;;;;;;;0.98;0.00;;;7.50;99.90;;;;;;4964934;28;20031;-77
2024/03/02 04:08:16;;;;;;;0.30;0.10;;;7.50;99.90;;;;;;4969406;28;20053;-77
2024/03/02 04:10:42;;;;;;;0.63;0.05;;;7.50;99.90;;;;;;4972865;28;20572;-77
2024/03/02 04:13:08;;;;;;;2.05;0.00;;;7.50;99.90;;;;;;4971830;28;20485;-77
2024/03/02 04:15:33;;;;;;;0.10;0.00;;;7.50;99.90;;;;;;4965351;28;20081;-76
2024/03/02 04:17:59;;;;;;;0.80;0.00;;;7.50;99.90;;;;;;4965165;28;20731;-79
2024/03/02 04:20:25;;;;;;;0.45;0.00;;;7.50;99.90;;;;;;4970779;28;20038;-77
2024/03/02 04:22:51;;;;;;;0.65;0.00;;;7.40;99.90;;;;;;4965897;28;20045;-77
2024/03/02 04:25:16;;;;;;;0.30;0.00;;;7.40;99.90;;;;;;4965228;28;20034;-77
2024/03/02 04:27:42;;;;;;;0.32;0.10;;;7.40;99.90;;;;;;4969839;28;20414;-77
2024/03/02 04:30:08;;;;;;;0.43;0.03;;;7.40;99.90;;;;;;4968297;28;20053;-77
2024/03/02 04:32:33;;;;;;;0.60;0.08;;;7.40;99.90;;;;;;4970878;28;20034;-77
2024/03/02 04:34:59;;;;;;;0.17;0.00;;;7.40;99.90;;;;;;4963661;28;20081;-76
2024/03/02 04:37:25;;;;;;;0.95;0.10;;;7.40;99.90;;;;;;4964369;28;20447;-77
2024/03/02 04:39:50;;;;;;;0.63;0.10;;;7.40;99.90;;;;;;4967563;28;20039;-78
2024/03/02 04:42:16;;;;;;;0.35;0.05;;;7.40;99.90;;;;;;4972924;28;20035;-78
2024/03/02 04:44:42;;;;;;;0.50;0.10;;;7.40;99.90;;;;;;4964818;28;20040;-77
2024/03/02 04:47:07;;;;;;;0.95;0.10;;;7.40;99.90;;;;;;4965167;28;20026;-77
2024/03/02 04:49:33;;;;;;;0.30;0.08;;;7.40;99.90;;;;;;4964328;28;20092;-77
2024/03/02 04:51:58;;;;;;;0.75;0.10;;;7.40;99.90;;;;;;4970631;28;20027;-77
2024/03/02 04:54:24;;;;;;;0.73;0.10;;;7.40;99.90;;;;;;4965480;28;20112;-77
2024/03/02 04:56:50;;;;;;;1.55;0.10;;;7.40;99.90;;;;;;4967316;28;20037;-78
2024/03/02 04:59:17;;;;;;;0.65;0.05;;;7.30;99.90;;;;;;4967058;28;20729;-77
2024/03/02 05:01:43;;;;;;;0.50;0.10;;;7.30;99.90;;;;;;4964026;28;20882;-76
2024/03/02 05:04:11;;;;;;;0.77;0.03;;;7.20;99.90;;;;;;4970898;28;20122;-77
2024/03/02 05:06:42;;;;;;;0.73;0.10;;;7.10;99.90;;;;;;4962256;28;20045;-78
2024/03/02 05:09:09;;;;;;;0.97;0.10;;;7.00;99.90;;;;;;4964493;28;20041;-76
2024/03/02 05:14:04;;;;;;;1.75;0.08;;;7.00;99.90;;;;;;4973484;28;20445;-77
2024/03/02 05:16:33;;;;;;;0.90;0.10;;;6.90;99.90;;;;;;4990554;28;20382;-77
2024/03/02 05:18:59;;;;;;;0.50;0.10;;;6.90;99.90;;;;;;4998310;28;20413;-77
2024/03/02 05:21:24;;;;;;;1.08;0.08;;;6.80;99.90;;;;;;4986826;28;20113;-77
2024/03/02 05:23:50;;;;;;;0.82;0.20;;;6.80;99.90;;;;;;4968904;28;20034;-77
2024/03/02 05:26:16;;;;;;;0.65;0.13;;;6.70;99.90;;;;;;4966787;28;20022;-77
2024/03/02 05:28:42;;;;;;;0.35;0.10;;;6.70;99.90;;;;;;4970169;28;20117;-76
2024/03/02 05:31:10;;;;;;;0.85;0.10;;;6.60;99.90;;;;;;4962378;28;20033;-77
2024/03/02 05:33:38;;;;;;;0.82;0.30;;;6.70;99.90;;;;;;4965373;28;20124;-77
2024/03/02 05:36:04;;;;;;;0.40;0.13;;;6.70;99.90;;;;;;4968167;28;20092;-76
2024/03/02 05:38:30;;;;;;;0.15;0.00;;;6.80;99.90;;;;;;4964656;28;20626;-77
2024/03/02 05:40:55;;;;;;;0.50;0.08;;;6.90;99.90;;;;;;4962318;28;20630;-77
2024/03/02 05:43:21;;;;;;;0.73;0.10;;;6.90;99.90;;;;;;4962561;28;20054;-77
2024/03/02 05:45:46;;;;;;;1.63;0.10;;;7.00;99.90;;;;;;4968994;28;20034;-76
2024/03/02 05:48:12;;;;;;;0.77;0.10;;;7.00;99.90;;;;;;4964334;28;20069;-77
2024/03/02 05:50:38;;;;;;;0.30;0.10;;;7.10;99.90;;;;;;4960650;28;20045;-76
2024/03/02 05:53:04;;;;;;;0.20;0.10;;;7.10;99.90;;;;;;4961324;28;20061;-77
2024/03/02 05:55:29;;;;;;;0.40;0.10;;;7.10;99.90;;;;;;4963260;28;20566;-77
2024/03/02 05:58:11;;;;;;;1.48;0.10;;;7.00;99.90;;;;;;4985985;28;21744;-77
2024/03/02 06:00:37;;;;;;;0.90;0.10;;;7.00;99.90;;;;;;4967544;28;20022;-77
2024/03/02 06:03:02;;;;;;;1.17;0.10;;;6.90;99.90;;;;;;4966903;28;20483;-76
2024/03/02 06:05:28;;;;;;;2.60;0.10;;;6.90;99.90;;;;;;4957992;28;20061;-77
2024/03/02 06:07:54;;;;;;;1.08;0.10;;;6.90;99.90;;;;;;4968053;28;20065;-77
2024/03/02 06:10:20;;;;;;;3.10;0.10;;;6.80;99.90;;;;;;4964543;28;20420;-77
2024/03/02 06:12:46;;;;;;;1.95;0.10;;;6.80;99.90;;;;;;4967006;28;20079;-78
2024/03/02 06:15:11;;;;;;;1.13;0.10;;;6.80;99.90;;;;;;4981147;28;20042;-77
2024/03/02 06:17:37;;;;;;;1.20;0.10;;;6.90;99.90;;;;;;4964558;28;20030;-77
2024/03/02 06:20:03;;;;;;;4.20;0.77;;;6.90;99.90;;;;;;4973602;28;20107;-76
2024/03/02 06:22:29;;;;;;;0.77;0.10;;;6.90;99.90;;;;;;4965229;28;20089;-78
2024/03/02 06:24:54;;;;;;;0.10;0.00;;;6.90;99.90;;;;;;4964102;28;20117;-77
2024/03/02 06:27:20;;;;;;;1.13;0.10;;;7.00;99.90;;;;;;4972800;28;20062;-77
2024/03/02 06:29:46;;;;;;;0.60;0.10;;;7.00;99.90;;;;;;4966399;28;20041;-77
2024/03/02 06:32:11;;;;;;;0.68;0.10;;;7.00;99.90;;;;;;4993611;28;20034;-77
2024/03/02 06:34:37;;;;;;;0.63;0.10;;;7.00;99.90;;;;;;4998925;28;20097;-77
2024/03/02 06:37:03;;;;;;;1.33;0.40;;;7.00;99.90;;;;;;4995124;28;20026;-77
2024/03/02 06:39:29;;;;;;;1.75;0.10;;;7.00;99.90;;;;;;4994503;28;20033;-77
2024/03/02 06:41:54;;;;;;;3.70;0.03;;;7.00;99.90;;;;;;4997432;28;20122;-77
2024/03/02 06:44:21;;;;;;;0.70;0.10;;;6.90;99.90;;;;;;5003813;28;20505;-77
2024/03/02 06:46:46;;;;;;;1.63;0.10;;;6.90;99.90;;;;;;5000644;28;20038;-77
2024/03/02 06:49:12;;;;;;;1.65;0.20;;;6.80;99.90;;;;;;5000476;28;20418;-77
2024/03/02 06:51:37;;;;;;;0.70;0.20;;;6.80;99.90;;;;;;4989719;28;20092;-77
2024/03/02 06:54:03;;;;;;;2.00;0.10;;;6.70;99.90;;;;;;4995750;28;20500;-77
2024/03/02 06:56:29;;;;;;;1.98;0.10;;;6.70;99.90;;;;;;5002552;28;20022;-77
2024/03/02 06:58:54;;;;;;;4.70;0.77;;;6.70;99.90;;;;;;4989955;28;20030;-77
2024/03/02 07:01:20;;;;;;;2.70;0.20;;;6.60;99.90;;;;;;4992446;28;20014;-77
2024/03/02 07:03:46;;;;;;;3.22;0.20;;;6.60;99.90;;;;;;4989440;28;20124;-77
2024/03/02 07:06:11;;;;;;;0.75;0.10;;;6.60;99.90;;;;;;4993418;28;20430;-77
2024/03/02 07:08:37;;;;;;;2.55;0.15;;;6.60;99.90;;;;;;4993089;28;20031;-77
2024/03/02 07:11:02;;;;;;;0.40;0.08;;;6.60;99.90;;;;;;4994239;28;20471;-77
2024/03/02 07:13:28;;;;;;;1.23;0.10;;;6.60;99.90;;;;;;4995209;28;20065;-77
2024/03/02 07:18:29;;;;;;;2.53;0.10;;;6.60;99.90;;;;;;4994201;28;20054;-78
2024/03/02 07:20:55;;;;;;;0.30;0.05;;;6.60;99.90;;;;;;4998884;28;20105;-77
2024/03/02 07:23:24;;;;;;;2.13;0.15;;;6.60;99.90;;;;;;4991301;28;20113;-77
2024/03/02 07:25:49;;;;;;;1.17;0.10;;;6.70;99.90;;;;;;4995818;28;20125;-77
2024/03/02 07:28:15;;;;;;;0.50;0.10;;;6.70;99.90;;;;;;5006768;28;20030;-77
2024/03/02 07:30:41;;;;;;;2.05;0.20;;;6.70;99.90;;;;;;4999577;28;20034;-77
2024/03/02 07:33:07;;;;;;;0.70;0.10;;;6.80;99.90;;;;;;5000370;28;20037;-77
2024/03/02 07:35:32;;;;;;;2.05;0.20;;;6.80;99.90;;;;;;5003147;28;20038;-77
2024/03/02 07:37:58;;;;;;;0.22;0.08;;;6.90;99.90;;;;;;4995575;28;20046;-77
2024/03/02 07:40:24;;;;;;;1.77;0.10;;;7.10;99.90;;;;;;4988772;28;20030;-77
2024/03/02 07:42:49;;;;;;;3.25;0.30;;;7.10;99.90;;;;;;4989550;28;20038;-77
2024/03/02 07:45:15;;;;;;;1.45;0.10;;;7.30;99.90;;;;;;4996382;28;20498;-77
2024/03/02 07:47:41;;;;;;;0.82;0.10;;;7.40;99.90;;;;;;4991548;28;20034;-77
2024/03/02 07:50:06;;;;;;;3.95;0.20;;;7.50;99.90;;;;;;4991780;28;20088;-77
2024/03/02 07:52:33;;;;;;;1.77;0.10;;;7.60;99.90;;;;;;5005110;28;20065;-77
2024/03/02 07:54:58;;;;;;;2.22;0.17;;;7.80;99.90;;;;;;4987313;28;20042;-77
2024/03/02 07:57:25;;;;;;;0.63;0.20;;;7.90;99.90;;;;;;4998674;28;20390;-77
2024/03/02 07:59:51;;;;;;;3.70;0.25;;;8.00;99.90;;;;;;5001031;28;20110;-78
2024/03/02 08:02:16;;;;;;;2.20;0.30;;;8.10;99.90;;;;;;4986840;28;20034;-77
2024/03/02 08:04:42;;;;;;;1.70;0.20;;;8.10;99.90;;;;;;4986545;28;20041;-77
2024/03/02 08:07:09;;;;;;;5.88;0.17;;;8.20;99.90;;;;;;5010363;28;20104;-77
2024/03/02 08:09:34;;;;;;;1.98;0.10;;;8.20;99.90;;;;;;4989470;28;20045;-77
2024/03/02 08:12:00;;;;;;;3.55;0.20;;;8.20;99.90;;;;;;5000890;28;20026;-77
2024/03/02 08:14:25;;;;;;;2.55;0.10;;;8.20;99.90;;;;;;4998245;28;20049;-78
2024/03/02 08:16:51;;;;;;;2.22;0.20;;;8.30;99.90;;;;;;4989714;28;20395;-77
2024/03/02 08:19:17;;;;;;;1.75;0.15;;;8.20;99.90;;;;;;4998220;28;20114;-77
2024/03/02 08:21:43;;;;;;;2.33;0.20;;;8.20;99.90;;;;;;4993391;28;20030;-77
2024/03/02 08:24:09;;;;;;;2.55;0.10;;;8.20;99.90;;;;;;4992599;28;20026;-79
2024/03/02 08:26:35;;;;;;;1.83;0.10;;;8.20;99.90;;;;;;4989308;28;20045;-77
2024/03/02 08:29:04;;;;;;;1.42;0.20;;;8.20;99.90;;;;;;4993309;28;20019;-78
2024/03/02 08:31:30;;;;;;;1.27;0.10;;;8.20;99.90;;;;;;4997045;28;20107;-77
2024/03/02 08:33:56;;;;;;;2.03;0.10;;;8.20;99.90;;;;;;4991268;28;20068;-77
2024/03/02 08:36:23;;;;;;;1.23;0.20;;;8.10;99.90;;;;;;5000295;28;20014;-77
2024/03/02 08:38:49;;;;;;;4.13;1.00;;;8.10;99.90;;;;;;4999736;28;20034;-76
2024/03/02 08:41:16;;;;;;;4.07;0.28;;;8.10;99.90;;;;;;4996640;28;20026;-77
2024/03/02 08:43:42;;;;;;;2.83;0.20;;;8.00;99.90;;;;;;4991705;28;20034;-76
2024/03/02 08:46:07;;;;;;;2.47;0.10;;;8.10;99.90;;;;;;4990625;28;20030;-76
2024/03/02 08:48:33;;;;;;;1.00;0.10;;;8.10;99.90;;;;;;5008551;28;20448;-77
2024/03/02 08:50:58;;;;;;;1.48;0.20;;;8.10;99.90;;;;;;5008409;28;20056;-77
2024/03/02 08:53:24;;;;;;;4.43;0.90;;;8.10;99.90;;;;;;4997417;28;20041;-77
2024/03/02 08:55:50;;;;;;;3.05;0.25;;;8.20;99.90;;;;;;4998048;28;20057;-76
2024/03/02 08:58:15;;;;;;;1.05;0.20;;;8.20;99.90;;;;;;5004995;28;20233;-76
2024/03/02 09:00:41;;;;;;;1.02;0.15;;;8.30;99.90;;;;;;4997389;28;20474;-75
2024/03/02 09:03:07;;;;;;;2.40;0.20;;;8.30;99.90;;;;;;4995269;28;20398;-76
2024/03/02 09:05:33;;;;;;;2.78;0.10;;;8.30;99.90;;;;;;5003102;28;20030;-76
2024/03/02 09:07:59;;;;;;;1.73;0.20;;;8.30;99.90;;;;;;5010089;28;20029;-76
2024/03/02 09:10:24;;;;;;;1.98;0.15;;;8.40;99.90;;;;;;4988328;28;20030;-77
2024/03/02 09:12:50;;;;;;;1.42;0.10;;;8.50;99.90;;;;;;4987756;28;20042;-76
2024/03/02 09:15:16;;;;;;;2.25;0.20;;;8.60;99.90;;;;;;5006728;28;20088;-78
2024/03/02 09:17:41;;;;;;;1.10;0.25;;;8.70;99.90;;;;;;5012431;28;20049;-77
2024/03/02 09:20:07;;;;;;;1.63;0.10;;;8.80;99.90;;;;;;5003595;28;20130;-77
2024/03/02 09:22:33;;;;;;;3.30;0.20;;;8.90;99.90;;;;;;4997706;28;20030;-77
2024/03/02 09:24:58;;;;;;;2.85;0.20;;;9.00;99.90;;;;;;5003391;28;20088;-76
2024/03/02 09:27:24;;;;;;;2.88;0.20;;;9.10;99.90;;;;;;4994916;28;20038;-77
2024/03/02 09:29:50;;;;;;;2.67;0.20;;;9.20;99.90;;;;;;4987483;28;20108;-77
2024/03/02 09:32:15;;;;;;;1.65;0.10;;;9.30;99.90;;;;;;4992544;28;20041;-77
2024/03/02 09:34:41;;;;;;;2.65;0.17;;;9.40;99.90;;;;;;5011973;28;20584;-76
2024/03/02 09:37:07;;;;;;;2.85;0.17;;;9.40;99.90;;;;;;5010793;28;20056;-76
2024/03/02 09:39:33;;;;;;;1.85;0.25;;;9.40;99.90;;;;;;5008351;28;20113;-76
2024/03/02 09:42:03;;;;;;;1.98;0.20;;;9.50;99.90;;;;;;5011449;28;20029;-77
2024/03/02 09:44:30;;;;;;;2.22;0.22;;;9.60;99.90;;;;;;5002028;28;20025;-77
2024/03/02 09:46:56;;;;;;;2.75;0.30;;;9.60;99.90;;;;;;5002984;28;20023;-76
2024/03/02 09:49:22;;;;;;;2.05;0.20;;;9.70;99.90;;;;;;4996626;28;20061;-76
2024/03/02 09:51:49;;;;;;;1.55;0.20;;;9.70;99.90;;;;;;5004139;28;20027;-77
2024/03/02 09:54:16;;;;;;;5.75;0.30;;;9.80;99.90;;;;;;4993296;28;20062;-77
2024/03/02 09:56:41;;;;;;;0.98;0.20;;;9.80;99.90;;;;;;4992355;28;20027;-76
2024/03/02 09:59:07;;;;;;;1.30;0.30;;;9.80;99.90;;;;;;4979910;28;20062;-76
2024/03/02 10:01:33;;;;;;;3.20;0.20;;;9.90;99.90;;;;;;4984365;28;20117;-78
2024/03/02 10:04:05;;;;;;;3.90;0.17;;;10.00;99.90;;;;;;5000279;28;20030;-77
2024/03/02 10:06:30;;;;;;;1.02;0.20;;;10.00;99.90;;;;;;4994335;28;20418;-78
2024/03/02 10:08:56;;;;;;;1.77;0.20;;;10.10;99.90;;;;;;4992438;28;20037;-78
2024/03/02 10:11:32;;;;;;;2.58;0.20;;;10.10;99.90;;;;;;4987151;28;20036;-78
2024/03/02 10:14:24;;;;;;;2.70;0.10;;;10.20;99.90;;;;;;4989050;28;20046;-78
2024/03/02 10:16:50;;;;;;;1.65;0.60;;;10.20;99.90;;;;;;4988346;28;20038;-78
2024/03/02 10:19:23;;;;;;;2.47;0.20;;;10.20;99.90;;;;;;5002685;28;20049;-78
2024/03/02 10:21:53;;;;;;;0.52;0.10;;;10.20;99.90;;;;;;5003346;28;20033;-77
2024/03/02 10:24:20;;;;;;;1.27;0.10;;;10.30;99.90;;;;;;4992949;28;20031;-78
2024/03/02 10:26:46;;;;;;;0.73;0.20;;;10.30;99.90;;;;;;5009636;28;20034;-78
2024/03/02 10:29:12;;;;;;;2.10;0.20;;;10.30;99.90;;;;;;4993560;28;20540;-78
2024/03/02 10:31:39;;;;;;;2.88;0.10;;;10.50;99.90;;;;;;5000571;28;20105;-78
2024/03/02 10:34:06;;;;;;;2.50;0.13;;;10.50;99.90;;;;;;4994423;28;20034;-78
2024/03/02 10:36:35;;;;;;;1.27;0.20;;;10.60;99.90;;;;;;4993113;28;20030;-78
2024/03/02 10:39:05;;;;;;;2.20;0.20;;;10.60;99.90;;;;;;4985428;28;20113;-78
2024/03/02 10:41:34;;;;;;;0.45;0.10;;;10.70;99.90;;;;;;4992227;28;20022;-79
2024/03/02 10:44:05;;;;;;;4.13;0.20;;;10.70;99.90;;;;;;4996819;28;21945;-74
2024/03/02 10:46:33;;;;;;;1.58;0.20;;;10.70;99.90;;;;;;4986635;28;20097;-74
2024/03/02 10:49:00;;;;;;;2.50;0.17;;;10.80;99.90;;;;;;5002754;28;20100;-77
2024/03/02 10:51:33;;;;;;;2.35;0.20;;;10.80;99.90;;;;;;4993564;28;20057;-77
2024/03/02 10:54:18;;;;;;;4.93;0.20;;;10.90;99.90;;;;;;4981514;28;20117;-77
2024/03/02 10:56:46;;;;;;;2.17;0.20;;;10.90;99.90;;;;;;4994650;28;20030;-77
2024/03/02 10:59:30;;;;;;;2.80;0.20;;;11.00;99.90;;;;;;4993830;28;20034;-77
2024/03/02 11:02:01;;;;;;;3.38;0.30;;;11.10;99.90;;;;;;4993372;28;20030;-76
2024/03/02 11:04:29;;;;;;;3.38;0.30;;;11.10;99.90;;;;;;4988010;28;20027;-76
2024/03/02 11:07:04;;;;;;;2.85;0.30;;;11.20;99.90;;;;;;5015316;28;20021;-76
2024/03/02 11:09:31;;;;;;;1.80;0.20;;;11.20;99.90;;;;;;4985106;28;20057;-76
2024/03/02 11:12:23;;;;;;;3.30;0.20;;;11.20;99.90;;;;;;4980580;28;20042;-76
2024/03/02 11:14:50;;;;;;;0.95;0.20;;;11.30;99.90;;;;;;4993559;28;20046;-75
2024/03/02 11:17:17;;;;;;;3.80;0.20;;;11.30;99.90;;;;;;4990636;28;20109;-76
2024/03/02 11:19:43;;;;;;;2.03;0.20;;;11.30;99.90;;;;;;4994122;28;20082;-76
2024/03/02 11:22:10;;;;;;;2.97;0.10;;;11.30;99.90;;;;;;5003872;28;20065;-76
2024/03/02 11:24:35;;;;;;;3.60;0.40;;;11.30;99.90;;;;;;4992133;28;20030;-75
2024/03/02 11:27:05;;;;;;;2.05;0.35;;;11.40;99.90;;;;;;4996423;28;20054;-75
2024/03/02 11:29:38;;;;;;;2.83;0.20;;;11.40;99.90;;;;;;4993194;28;20061;-76
2024/03/02 11:32:14;;;;;;;2.22;0.45;;;11.50;99.90;;;;;;4993601;28;20155;-76
2024/03/02 11:34:49;;;;;;;3.85;0.30;;;11.60;99.90;;;;;;4994052;28;20034;-76
2024/03/02 11:37:20;;;;;;;2.83;0.10;;;11.70;99.90;;;;;;4993627;28;20030;-76
2024/03/02 11:39:46;;;;;;;4.22;0.30;;;11.60;99.90;;;;;;4998839;28;20513;-75
2024/03/02 11:42:14;;;;;;;3.78;0.30;;;11.70;99.90;;;;;;4995734;28;20021;-76
2024/03/02 11:44:41;;;;;;;1.13;0.17;;;11.70;99.90;;;;;;4994733;28;20023;-76
2024/03/02 11:47:10;;;;;;;2.00;0.25;;;11.80;99.90;;;;;;4998003;28;20029;-75
2024/03/02 11:49:45;;;;;;;1.02;0.20;;;11.80;99.90;;;;;;4996244;28;20582;-76
2024/03/02 11:52:15;;;;;;;1.65;0.17;;;11.80;99.90;;;;;;4996411;28;20026;-76
2024/03/02 11:54:46;;;;;;;3.13;0.40;;;11.90;99.90;;;;;;4994412;28;20031;-76
2024/03/02 11:57:16;;;;;;;1.38;0.20;;;12.00;99.90;;;;;;4992794;28;20034;-76
2024/03/02 11:59:43;;;;;;;1.25;0.20;;;12.10;99.90;;;;;;4992024;28;20430;-75
2024/03/02 12:02:29;;;;;;;3.42;0.30;;;12.10;99.90;;;;;;4990704;28;20113;-75
2024/03/02 12:04:55;;;;;;;2.05;0.28;;;12.20;99.90;;;;;;4993089;28;20125;-77
2024/03/02 12:07:24;;;;;;;1.42;0.20;;;12.20;99.90;;;;;;4993366;28;20033;-75
2024/03/02 12:10:01;;;;;;;2.65;0.20;;;12.30;99.90;;;;;;4979855;28;20038;-76
2024/03/02 12:12:26;;;;;;;2.83;0.13;;;12.30;99.90;;;;;;4987153;28;20130;-75
2024/03/02 12:14:55;;;;;;;3.17;0.30;;;12.40;99.90;;;;;;4997699;28;20405;-76
2024/03/02 12:17:21;;;;;;;3.03;0.20;;;12.40;99.90;;;;;;5004198;28;20112;-75
2024/03/02 12:19:47;;;;;;;4.75;0.20;;;12.50;99.90;;;;;;4998906;28;20050;-76
2024/03/02 12:22:12;;;;;;;2.15;0.20;;;12.60;99.90;;;;;;4995509;28;20030;-76
2024/03/02 12:24:38;;;;;;;1.10;0.10;;;12.60;99.90;;;;;;4993804;28;20483;-76
2024/03/02 12:27:05;;;;;;;4.15;0.35;;;12.70;99.90;;;;;;5009420;28;20028;-76
2024/03/02 12:29:31;;;;;;;2.10;0.20;;;12.70;99.90;;;;;;4998716;28;20092;-75
2024/03/02 12:31:57;;;;;;;1.60;0.10;;;12.80;99.90;;;;;;4995811;28;20030;-76
2024/03/02 12:34:23;;;;;;;4.22;0.20;;;12.90;99.90;;;;;;4998002;28;20121;-75
2024/03/02 12:36:53;;;;;;;1.73;0.30;;;12.90;99.90;;;;;;4990655;28;20022;-77
2024/03/02 12:39:24;;;;;;;1.85;0.20;;;12.90;99.90;;;;;;5007704;28;20041;-76
2024/03/02 12:41:51;;;;;;;2.90;0.20;;;13.00;99.90;;;;;;4996007;28;20356;-76
2024/03/02 12:44:20;;;;;;;2.83;0.30;;;13.00;99.90;;;;;;4992928;28;20439;-75
2024/03/02 12:46:46;;;;;;;1.33;0.20;;;13.00;99.90;;;;;;5008735;28;20036;-76
2024/03/02 12:49:20;;;;;;;1.50;0.22;;;13.00;99.90;;;;;;4998423;28;20058;-76
2024/03/02 12:51:51;;;;;;;1.45;0.30;;;12.90;99.90;;;;;;4984740;28;20061;-77
2024/03/02 12:54:17;;;;;;;4.75;0.28;;;12.90;99.90;;;;;;4993931;28;20046;-76
2024/03/02 12:56:45;;;;;;;3.08;0.40;;;13.00;99.90;;;;;;5006668;28;20049;-76
2024/03/02 12:59:19;;;;;;;3.17;0.40;;;13.10;99.90;;;;;;5007185;28;20072;-76